sensor_id;sensor_type;location;lat;lon;timestamp;P1;durP1;ratioP1;P2;durP2;ratioP2
12665;SDS011;58531;59.050;17.416;2023-08-06T00:00:38;18.17;;;16.57;;
12665;SDS011;58531;59.050;17.416;2023-08-06T00:03:05;17.43;;;15.80;;
12665;SDS011;58531;59.050;17.416;2023-08-06T00:05:32;17.20;;;15.73;;
12665;SDS011;58531;59.050;17.416;2023-08-06T00:07:59;16.83;;;15.43;;
12665;SDS011;58531;59.050;17.416;2023-08-06T00:10:27;16.73;;;15.50;;
12665;SDS011;58531;59.050;17.416;2023-08-06T00:12:54;18.67;;;17.23;;
12665;SDS011;58531;59.050;17.416;2023-08-06T00:15:20;17.57;;;15.97;;
12665;SDS011;58531;59.050;17.416;2023-08-06T00:17:48;17.63;;;16.13;;
12665;SDS011;58531;59.050;17.416;2023-08-06T00:20:15;16.93;;;15.53;;
12665;SDS011;58531;59.050;17.416;2023-08-06T00:22:42;16.87;;;15.30;;
12665;SDS011;58531;59.050;17.416;2023-08-06T00:25:09;16.80;;;15.40;;
12665;SDS011;58531;59.050;17.416;2023-08-06T00:27:37;18.97;;;17.33;;
12665;SDS011;58531;59.050;17.416;2023-08-06T00:30:04;17.33;;;15.90;;
12665;SDS011;58531;59.050;17.416;2023-08-06T00:32:32;17.67;;;16.03;;
12665;SDS011;58531;59.050;17.416;2023-08-06T00:34:59;17.07;;;15.63;;
12665;SDS011;58531;59.050;17.416;2023-08-06T00:37:26;20.93;;;16.60;;
12665;SDS011;58531;59.050;17.416;2023-08-06T00:39:52;16.00;;;14.87;;
12665;SDS011;58531;59.050;17.416;2023-08-06T00:42:19;16.73;;;15.03;;
12665;SDS011;58531;59.050;17.416;2023-08-06T00:44:48;19.40;;;16.67;;
12665;SDS011;58531;59.050;17.416;2023-08-06T00:47:15;16.30;;;14.33;;
12665;SDS011;58531;59.050;17.416;2023-08-06T00:49:43;17.83;;;15.97;;
12665;SDS011;58531;59.050;17.416;2023-08-06T00:52:10;18.70;;;17.10;;
12665;SDS011;58531;59.050;17.416;2023-08-06T00:54:38;16.30;;;14.80;;
12665;SDS011;58531;59.050;17.416;2023-08-06T00:57:05;15.50;;;14.40;;
12665;SDS011;58531;59.050;17.416;2023-08-06T00:59:34;18.37;;;16.87;;
12665;SDS011;58531;59.050;17.416;2023-08-06T01:02:02;16.97;;;15.57;;
12665;SDS011;58531;59.050;17.416;2023-08-06T01:04:29;17.60;;;16.10;;
12665;SDS011;58531;59.050;17.416;2023-08-06T01:07:01;18.77;;;17.37;;
12665;SDS011;58531;59.050;17.416;2023-08-06T01:09:41;19.97;;;18.37;;
12665;SDS011;58531;59.050;17.416;2023-08-06T01:12:18;19.47;;;17.87;;
12665;SDS011;58531;59.050;17.416;2023-08-06T01:14:53;18.93;;;17.53;;
12665;SDS011;58531;59.050;17.416;2023-08-06T01:17:26;18.90;;;17.40;;
12665;SDS011;58531;59.050;17.416;2023-08-06T01:19:54;21.00;;;19.50;;
12665;SDS011;58531;59.050;17.416;2023-08-06T01:22:22;19.87;;;18.43;;
12665;SDS011;58531;59.050;17.416;2023-08-06T01:24:49;22.77;;;21.20;;
12665;SDS011;58531;59.050;17.416;2023-08-06T01:27:19;22.03;;;20.47;;
12665;SDS011;58531;59.050;17.416;2023-08-06T01:29:55;21.63;;;19.93;;
12665;SDS011;58531;59.050;17.416;2023-08-06T01:32:26;22.40;;;20.90;;
12665;SDS011;58531;59.050;17.416;2023-08-06T01:34:55;20.87;;;19.13;;
12665;SDS011;58531;59.050;17.416;2023-08-06T01:37:26;21.47;;;19.87;;
12665;SDS011;58531;59.050;17.416;2023-08-06T01:39:54;22.90;;;21.00;;
12665;SDS011;58531;59.050;17.416;2023-08-06T01:42:21;25.17;;;23.37;;
12665;SDS011;58531;59.050;17.416;2023-08-06T01:44:48;22.53;;;21.00;;
12665;SDS011;58531;59.050;17.416;2023-08-06T01:47:15;21.50;;;19.87;;
12665;SDS011;58531;59.050;17.416;2023-08-06T01:49:42;22.83;;;21.43;;
12665;SDS011;58531;59.050;17.416;2023-08-06T01:52:08;23.73;;;22.07;;
12665;SDS011;58531;59.050;17.416;2023-08-06T01:54:37;24.33;;;22.73;;
12665;SDS011;58531;59.050;17.416;2023-08-06T01:57:04;25.40;;;23.60;;
12665;SDS011;58531;59.050;17.416;2023-08-06T01:59:31;25.70;;;23.80;;
12665;SDS011;58531;59.050;17.416;2023-08-06T02:01:58;24.80;;;23.27;;
12665;SDS011;58531;59.050;17.416;2023-08-06T02:04:25;28.03;;;26.20;;
12665;SDS011;58531;59.050;17.416;2023-08-06T02:06:52;26.17;;;23.93;;
12665;SDS011;58531;59.050;17.416;2023-08-06T02:09:19;26.90;;;25.10;;
12665;SDS011;58531;59.050;17.416;2023-08-06T02:11:47;25.23;;;23.60;;
12665;SDS011;58531;59.050;17.416;2023-08-06T02:14:14;31.10;;;29.20;;
12665;SDS011;58531;59.050;17.416;2023-08-06T02:16:41;27.97;;;26.00;;
12665;SDS011;58531;59.050;17.416;2023-08-06T02:19:07;25.40;;;23.67;;
12665;SDS011;58531;59.050;17.416;2023-08-06T02:21:34;29.17;;;27.20;;
12665;SDS011;58531;59.050;17.416;2023-08-06T02:24:01;26.07;;;23.53;;
12665;SDS011;58531;59.050;17.416;2023-08-06T02:26:28;25.87;;;24.07;;
12665;SDS011;58531;59.050;17.416;2023-08-06T02:28:57;27.57;;;25.67;;
12665;SDS011;58531;59.050;17.416;2023-08-06T02:31:23;27.90;;;26.10;;
12665;SDS011;58531;59.050;17.416;2023-08-06T02:33:50;26.97;;;25.27;;
12665;SDS011;58531;59.050;17.416;2023-08-06T02:36:19;27.07;;;24.90;;
12665;SDS011;58531;59.050;17.416;2023-08-06T02:38:45;28.70;;;26.97;;
12665;SDS011;58531;59.050;17.416;2023-08-06T02:41:13;31.73;;;29.70;;
12665;SDS011;58531;59.050;17.416;2023-08-06T02:43:40;29.83;;;27.53;;
12665;SDS011;58531;59.050;17.416;2023-08-06T02:46:08;28.57;;;26.77;;
12665;SDS011;58531;59.050;17.416;2023-08-06T02:48:35;27.13;;;25.33;;
12665;SDS011;58531;59.050;17.416;2023-08-06T02:51:01;29.07;;;27.17;;
12665;SDS011;58531;59.050;17.416;2023-08-06T02:53:28;26.13;;;24.40;;
12665;SDS011;58531;59.050;17.416;2023-08-06T02:55:56;30.03;;;28.10;;
12665;SDS011;58531;59.050;17.416;2023-08-06T02:58:24;29.77;;;27.57;;
12665;SDS011;58531;59.050;17.416;2023-08-06T03:01:00;28.10;;;26.50;;
12665;SDS011;58531;59.050;17.416;2023-08-06T03:03:29;28.90;;;27.20;;
12665;SDS011;58531;59.050;17.416;2023-08-06T03:05:56;28.00;;;26.20;;
12665;SDS011;58531;59.050;17.416;2023-08-06T03:08:23;29.80;;;27.90;;
12665;SDS011;58531;59.050;17.416;2023-08-06T03:10:51;26.63;;;24.80;;
12665;SDS011;58531;59.050;17.416;2023-08-06T03:13:18;29.17;;;27.23;;
12665;SDS011;58531;59.050;17.416;2023-08-06T03:15:51;27.33;;;25.63;;
12665;SDS011;58531;59.050;17.416;2023-08-06T03:18:19;28.20;;;25.80;;
12665;SDS011;58531;59.050;17.416;2023-08-06T03:20:48;26.93;;;25.03;;
12665;SDS011;58531;59.050;17.416;2023-08-06T03:23:15;28.33;;;25.93;;
12665;SDS011;58531;59.050;17.416;2023-08-06T03:25:42;27.53;;;25.73;;
12665;SDS011;58531;59.050;17.416;2023-08-06T03:28:09;25.80;;;23.63;;
12665;SDS011;58531;59.050;17.416;2023-08-06T03:30:35;28.30;;;26.40;;
12665;SDS011;58531;59.050;17.416;2023-08-06T03:33:02;26.50;;;24.70;;
12665;SDS011;58531;59.050;17.416;2023-08-06T03:35:29;27.57;;;25.43;;
12665;SDS011;58531;59.050;17.416;2023-08-06T03:37:58;25.93;;;24.10;;
12665;SDS011;58531;59.050;17.416;2023-08-06T03:40:24;29.53;;;27.43;;
12665;SDS011;58531;59.050;17.416;2023-08-06T03:42:51;27.47;;;25.40;;
12665;SDS011;58531;59.050;17.416;2023-08-06T03:45:18;26.93;;;25.03;;
12665;SDS011;58531;59.050;17.416;2023-08-06T03:47:45;24.93;;;23.00;;
12665;SDS011;58531;59.050;17.416;2023-08-06T03:50:12;27.23;;;25.53;;
12665;SDS011;58531;59.050;17.416;2023-08-06T03:52:38;31.27;;;29.30;;
12665;SDS011;58531;59.050;17.416;2023-08-06T03:55:07;30.07;;;28.40;;
12665;SDS011;58531;59.050;17.416;2023-08-06T03:57:34;32.33;;;30.43;;
12665;SDS011;58531;59.050;17.416;2023-08-06T04:00:01;35.60;;;33.63;;
12665;SDS011;58531;59.050;17.416;2023-08-06T04:02:28;40.37;;;38.57;;
12665;SDS011;58531;59.050;17.416;2023-08-06T04:04:55;31.00;;;29.60;;
12665;SDS011;58531;59.050;17.416;2023-08-06T04:07:24;21.57;;;20.53;;
12665;SDS011;58531;59.050;17.416;2023-08-06T04:09:52;21.27;;;20.20;;
12665;SDS011;58531;59.050;17.416;2023-08-06T04:12:20;22.07;;;20.87;;
12665;SDS011;58531;59.050;17.416;2023-08-06T04:14:47;17.83;;;16.87;;
12665;SDS011;58531;59.050;17.416;2023-08-06T04:17:14;15.67;;;14.87;;
12665;SDS011;58531;59.050;17.416;2023-08-06T04:19:41;17.03;;;16.23;;
12665;SDS011;58531;59.050;17.416;2023-08-06T04:22:08;16.23;;;15.50;;
12665;SDS011;58531;59.050;17.416;2023-08-06T04:24:34;15.73;;;14.87;;
12665;SDS011;58531;59.050;17.416;2023-08-06T04:27:01;16.87;;;15.97;;
12665;SDS011;58531;59.050;17.416;2023-08-06T04:29:30;16.60;;;15.87;;
12665;SDS011;58531;59.050;17.416;2023-08-06T04:31:56;16.70;;;15.87;;
12665;SDS011;58531;59.050;17.416;2023-08-06T04:34:24;14.60;;;13.60;;
12665;SDS011;58531;59.050;17.416;2023-08-06T04:36:51;15.40;;;14.30;;
12665;SDS011;58531;59.050;17.416;2023-08-06T04:39:17;14.37;;;13.57;;
12665;SDS011;58531;59.050;17.416;2023-08-06T04:41:44;15.60;;;14.80;;
12665;SDS011;58531;59.050;17.416;2023-08-06T04:44:11;13.13;;;12.30;;
12665;SDS011;58531;59.050;17.416;2023-08-06T04:46:39;16.10;;;15.33;;
12665;SDS011;58531;59.050;17.416;2023-08-06T04:49:06;14.03;;;13.33;;
12665;SDS011;58531;59.050;17.416;2023-08-06T04:51:33;14.87;;;14.10;;
12665;SDS011;58531;59.050;17.416;2023-08-06T04:54:00;14.37;;;13.60;;
12665;SDS011;58531;59.050;17.416;2023-08-06T04:56:26;16.60;;;15.70;;
12665;SDS011;58531;59.050;17.416;2023-08-06T04:58:53;13.67;;;13.07;;
12665;SDS011;58531;59.050;17.416;2023-08-06T05:01:20;13.27;;;12.47;;
12665;SDS011;58531;59.050;17.416;2023-08-06T05:03:48;12.53;;;11.93;;
12665;SDS011;58531;59.050;17.416;2023-08-06T05:06:15;12.93;;;12.30;;
12665;SDS011;58531;59.050;17.416;2023-08-06T05:08:42;12.23;;;11.53;;
12665;SDS011;58531;59.050;17.416;2023-08-06T05:11:09;9.47;;;8.87;;
12665;SDS011;58531;59.050;17.416;2023-08-06T05:13:36;10.40;;;9.70;;
12665;SDS011;58531;59.050;17.416;2023-08-06T05:16:03;9.10;;;8.57;;
12665;SDS011;58531;59.050;17.416;2023-08-06T05:18:30;9.80;;;9.20;;
12665;SDS011;58531;59.050;17.416;2023-08-06T05:20:58;8.00;;;7.50;;
12665;SDS011;58531;59.050;17.416;2023-08-06T05:23:25;6.90;;;6.50;;
12665;SDS011;58531;59.050;17.416;2023-08-06T05:25:51;8.87;;;8.47;;
12665;SDS011;58531;59.050;17.416;2023-08-06T05:28:18;8.90;;;8.30;;
12665;SDS011;58531;59.050;17.416;2023-08-06T05:30:45;8.90;;;8.30;;
12665;SDS011;58531;59.050;17.416;2023-08-06T05:33:12;9.07;;;8.67;;
12665;SDS011;58531;59.050;17.416;2023-08-06T05:35:40;8.90;;;8.40;;
12665;SDS011;58531;59.050;17.416;2023-08-06T05:38:08;10.53;;;9.93;;
12665;SDS011;58531;59.050;17.416;2023-08-06T05:40:35;10.90;;;10.00;;
12665;SDS011;58531;59.050;17.416;2023-08-06T05:43:02;10.97;;;10.13;;
12665;SDS011;58531;59.050;17.416;2023-08-06T05:45:29;10.20;;;9.60;;
12665;SDS011;58531;59.050;17.416;2023-08-06T05:47:55;8.87;;;8.27;;
12665;SDS011;58531;59.050;17.416;2023-08-06T05:50:23;11.73;;;11.03;;
12665;SDS011;58531;59.050;17.416;2023-08-06T05:52:50;10.70;;;10.00;;
12665;SDS011;58531;59.050;17.416;2023-08-06T05:55:18;11.33;;;10.60;;
12665;SDS011;58531;59.050;17.416;2023-08-06T05:57:45;11.27;;;10.67;;
12665;SDS011;58531;59.050;17.416;2023-08-06T06:00:12;12.33;;;11.60;;
12665;SDS011;58531;59.050;17.416;2023-08-06T06:02:39;13.80;;;12.93;;
12665;SDS011;58531;59.050;17.416;2023-08-06T06:05:05;14.97;;;14.07;;
12665;SDS011;58531;59.050;17.416;2023-08-06T06:07:33;15.30;;;14.50;;
12665;SDS011;58531;59.050;17.416;2023-08-06T06:09:59;16.07;;;15.07;;
12665;SDS011;58531;59.050;17.416;2023-08-06T06:12:28;13.27;;;12.53;;
12665;SDS011;58531;59.050;17.416;2023-08-06T06:14:55;13.67;;;12.97;;
12665;SDS011;58531;59.050;17.416;2023-08-06T06:17:22;16.13;;;15.13;;
12665;SDS011;58531;59.050;17.416;2023-08-06T06:19:48;19.17;;;18.27;;
12665;SDS011;58531;59.050;17.416;2023-08-06T06:22:15;17.87;;;17.00;;
12665;SDS011;58531;59.050;17.416;2023-08-06T06:24:42;20.10;;;19.00;;
12665;SDS011;58531;59.050;17.416;2023-08-06T06:27:09;17.83;;;16.73;;
12665;SDS011;58531;59.050;17.416;2023-08-06T06:29:38;18.80;;;17.63;;
12665;SDS011;58531;59.050;17.416;2023-08-06T06:32:05;17.00;;;15.90;;
12665;SDS011;58531;59.050;17.416;2023-08-06T06:34:32;23.70;;;22.40;;
12665;SDS011;58531;59.050;17.416;2023-08-06T06:36:59;15.50;;;14.67;;
12665;SDS011;58531;59.050;17.416;2023-08-06T06:39:26;14.20;;;13.17;;
12665;SDS011;58531;59.050;17.416;2023-08-06T06:41:53;12.37;;;11.67;;
12665;SDS011;58531;59.050;17.416;2023-08-06T06:44:19;11.53;;;10.80;;
12665;SDS011;58531;59.050;17.416;2023-08-06T06:46:48;10.80;;;10.20;;
12665;SDS011;58531;59.050;17.416;2023-08-06T06:49:14;10.53;;;9.93;;
12665;SDS011;58531;59.050;17.416;2023-08-06T06:51:41;10.50;;;9.70;;
12665;SDS011;58531;59.050;17.416;2023-08-06T06:54:08;10.17;;;9.37;;
12665;SDS011;58531;59.050;17.416;2023-08-06T06:56:35;8.83;;;8.23;;
12665;SDS011;58531;59.050;17.416;2023-08-06T06:59:02;8.80;;;8.23;;
12665;SDS011;58531;59.050;17.416;2023-08-06T07:01:29;7.57;;;7.17;;
12665;SDS011;58531;59.050;17.416;2023-08-06T07:03:57;8.17;;;7.77;;
12665;SDS011;58531;59.050;17.416;2023-08-06T07:06:24;8.53;;;8.10;;
12665;SDS011;58531;59.050;17.416;2023-08-06T07:08:51;6.90;;;6.50;;
12665;SDS011;58531;59.050;17.416;2023-08-06T07:11:18;6.97;;;6.37;;
12665;SDS011;58531;59.050;17.416;2023-08-06T07:13:44;7.97;;;7.47;;
12665;SDS011;58531;59.050;17.416;2023-08-06T07:16:11;8.67;;;7.97;;
12665;SDS011;58531;59.050;17.416;2023-08-06T07:18:38;8.60;;;8.10;;
12665;SDS011;58531;59.050;17.416;2023-08-06T07:21:06;8.70;;;8.27;;
12665;SDS011;58531;59.050;17.416;2023-08-06T07:23:33;7.37;;;6.83;;
12665;SDS011;58531;59.050;17.416;2023-08-06T07:26:00;7.43;;;7.03;;
12665;SDS011;58531;59.050;17.416;2023-08-06T07:28:26;7.03;;;6.63;;
12665;SDS011;58531;59.050;17.416;2023-08-06T07:30:53;6.80;;;6.47;;
12665;SDS011;58531;59.050;17.416;2023-08-06T07:33:20;8.47;;;7.87;;
12665;SDS011;58531;59.050;17.416;2023-08-06T07:35:47;7.57;;;7.23;;
12665;SDS011;58531;59.050;17.416;2023-08-06T07:38:15;7.93;;;7.53;;
12665;SDS011;58531;59.050;17.416;2023-08-06T07:40:42;7.00;;;6.60;;
12665;SDS011;58531;59.050;17.416;2023-08-06T07:43:09;8.10;;;7.60;;
12665;SDS011;58531;59.050;17.416;2023-08-06T07:45:36;7.93;;;7.30;;
12665;SDS011;58531;59.050;17.416;2023-08-06T07:48:04;8.13;;;7.63;;
12665;SDS011;58531;59.050;17.416;2023-08-06T07:50:31;7.53;;;7.10;;
12665;SDS011;58531;59.050;17.416;2023-08-06T07:52:58;8.00;;;7.60;;
12665;SDS011;58531;59.050;17.416;2023-08-06T07:55:26;8.37;;;7.73;;
12665;SDS011;58531;59.050;17.416;2023-08-06T07:57:53;7.83;;;7.43;;
12665;SDS011;58531;59.050;17.416;2023-08-06T08:00:20;7.97;;;7.53;;
12665;SDS011;58531;59.050;17.416;2023-08-06T08:02:46;8.20;;;7.57;;
12665;SDS011;58531;59.050;17.416;2023-08-06T08:05:13;8.77;;;8.37;;
12665;SDS011;58531;59.050;17.416;2023-08-06T08:07:40;8.80;;;8.20;;
12665;SDS011;58531;59.050;17.416;2023-08-06T08:10:07;9.50;;;9.00;;
12665;SDS011;58531;59.050;17.416;2023-08-06T08:12:36;9.03;;;8.53;;
12665;SDS011;58531;59.050;17.416;2023-08-06T08:15:03;9.20;;;8.60;;
12665;SDS011;58531;59.050;17.416;2023-08-06T08:17:31;9.13;;;8.53;;
12665;SDS011;58531;59.050;17.416;2023-08-06T08:19:59;7.97;;;7.47;;
12665;SDS011;58531;59.050;17.416;2023-08-06T08:22:26;9.53;;;8.93;;
12665;SDS011;58531;59.050;17.416;2023-08-06T08:24:53;9.23;;;8.40;;
12665;SDS011;58531;59.050;17.416;2023-08-06T08:27:20;10.43;;;9.83;;
12665;SDS011;58531;59.050;17.416;2023-08-06T08:29:48;9.27;;;8.87;;
12665;SDS011;58531;59.050;17.416;2023-08-06T08:32:15;8.97;;;8.47;;
12665;SDS011;58531;59.050;17.416;2023-08-06T08:34:42;10.40;;;9.80;;
12665;SDS011;58531;59.050;17.416;2023-08-06T08:37:09;10.33;;;9.73;;
12665;SDS011;58531;59.050;17.416;2023-08-06T08:39:36;8.77;;;8.33;;
12665;SDS011;58531;59.050;17.416;2023-08-06T08:42:03;9.93;;;9.33;;
12665;SDS011;58531;59.050;17.416;2023-08-06T08:44:31;9.63;;;9.03;;
12665;SDS011;58531;59.050;17.416;2023-08-06T08:47:00;9.87;;;9.27;;
12665;SDS011;58531;59.050;17.416;2023-08-06T08:49:27;9.67;;;9.20;;
12665;SDS011;58531;59.050;17.416;2023-08-06T08:51:55;9.60;;;9.00;;
12665;SDS011;58531;59.050;17.416;2023-08-06T08:54:23;9.87;;;9.17;;
12665;SDS011;58531;59.050;17.416;2023-08-06T08:56:51;10.67;;;10.00;;
12665;SDS011;58531;59.050;17.416;2023-08-06T08:59:18;9.93;;;9.33;;
12665;SDS011;58531;59.050;17.416;2023-08-06T09:01:45;9.37;;;8.87;;
12665;SDS011;58531;59.050;17.416;2023-08-06T09:04:18;10.23;;;9.53;;
12665;SDS011;58531;59.050;17.416;2023-08-06T09:06:46;10.23;;;9.63;;
12665;SDS011;58531;59.050;17.416;2023-08-06T09:09:17;9.43;;;8.63;;
12665;SDS011;58531;59.050;17.416;2023-08-06T09:11:48;10.50;;;9.80;;
12665;SDS011;58531;59.050;17.416;2023-08-06T09:14:15;10.80;;;10.20;;
12665;SDS011;58531;59.050;17.416;2023-08-06T09:16:43;10.43;;;9.73;;
12665;SDS011;58531;59.050;17.416;2023-08-06T09:19:10;9.57;;;8.97;;
12665;SDS011;58531;59.050;17.416;2023-08-06T09:21:39;9.90;;;9.30;;
12665;SDS011;58531;59.050;17.416;2023-08-06T09:24:07;10.00;;;9.20;;
12665;SDS011;58531;59.050;17.416;2023-08-06T09:26:35;9.53;;;8.83;;
12665;SDS011;58531;59.050;17.416;2023-08-06T09:29:04;9.73;;;8.93;;
12665;SDS011;58531;59.050;17.416;2023-08-06T09:31:38;8.57;;;8.07;;
12665;SDS011;58531;59.050;17.416;2023-08-06T09:34:10;9.30;;;8.67;;
12665;SDS011;58531;59.050;17.416;2023-08-06T09:36:41;13.90;;;13.10;;
12665;SDS011;58531;59.050;17.416;2023-08-06T09:39:12;9.43;;;8.83;;
12665;SDS011;58531;59.050;17.416;2023-08-06T09:41:40;10.67;;;9.80;;
12665;SDS011;58531;59.050;17.416;2023-08-06T09:44:12;10.10;;;9.23;;
12665;SDS011;58531;59.050;17.416;2023-08-06T09:46:43;10.67;;;10.07;;
12665;SDS011;58531;59.050;17.416;2023-08-06T09:49:13;9.40;;;8.80;;
12665;SDS011;58531;59.050;17.416;2023-08-06T09:51:41;10.17;;;9.57;;
12665;SDS011;58531;59.050;17.416;2023-08-06T09:54:09;11.13;;;10.43;;
12665;SDS011;58531;59.050;17.416;2023-08-06T09:56:38;10.83;;;10.03;;
12665;SDS011;58531;59.050;17.416;2023-08-06T09:59:06;12.83;;;12.23;;
12665;SDS011;58531;59.050;17.416;2023-08-06T10:01:34;18.33;;;17.23;;
12665;SDS011;58531;59.050;17.416;2023-08-06T10:04:01;16.43;;;15.40;;
12665;SDS011;58531;59.050;17.416;2023-08-06T10:06:31;29.17;;;27.77;;
12665;SDS011;58531;59.050;17.416;2023-08-06T10:09:02;29.03;;;27.83;;
12665;SDS011;58531;59.050;17.416;2023-08-06T10:11:29;26.33;;;25.07;;
12665;SDS011;58531;59.050;17.416;2023-08-06T10:13:58;26.60;;;25.43;;
12665;SDS011;58531;59.050;17.416;2023-08-06T10:16:30;27.93;;;26.63;;
12665;SDS011;58531;59.050;17.416;2023-08-06T10:18:58;34.43;;;32.93;;
12665;SDS011;58531;59.050;17.416;2023-08-06T10:21:27;36.90;;;35.23;;
12665;SDS011;58531;59.050;17.416;2023-08-06T10:23:55;35.40;;;33.90;;
12665;SDS011;58531;59.050;17.416;2023-08-06T10:26:26;40.20;;;38.40;;
12665;SDS011;58531;59.050;17.416;2023-08-06T10:28:53;34.13;;;32.70;;
12665;SDS011;58531;59.050;17.416;2023-08-06T10:31:20;41.40;;;39.60;;
12665;SDS011;58531;59.050;17.416;2023-08-06T10:34:27;42.47;;;40.70;;
12665;SDS011;58531;59.050;17.416;2023-08-06T10:37:21;38.03;;;36.47;;
12665;SDS011;58531;59.050;17.416;2023-08-06T10:39:49;40.47;;;38.60;;
12665;SDS011;58531;59.050;17.416;2023-08-06T10:42:21;34.67;;;33.07;;
12665;SDS011;58531;59.050;17.416;2023-08-06T10:47:37;38.10;;;36.47;;
12665;SDS011;58531;59.050;17.416;2023-08-06T10:50:06;32.67;;;31.03;;
12665;SDS011;58531;59.050;17.416;2023-08-06T10:52:33;33.57;;;32.07;;
12665;SDS011;58531;59.050;17.416;2023-08-06T10:55:00;38.33;;;36.63;;
12665;SDS011;58531;59.050;17.416;2023-08-06T10:57:28;39.70;;;37.93;;
12665;SDS011;58531;59.050;17.416;2023-08-06T10:59:55;41.43;;;39.60;;
12665;SDS011;58531;59.050;17.416;2023-08-06T11:02:22;46.97;;;44.93;;
12665;SDS011;58531;59.050;17.416;2023-08-06T11:04:49;46.63;;;44.53;;
12665;SDS011;58531;59.050;17.416;2023-08-06T11:07:16;49.90;;;47.73;;
12665;SDS011;58531;59.050;17.416;2023-08-06T11:09:43;47.37;;;45.30;;
12665;SDS011;58531;59.050;17.416;2023-08-06T11:12:10;54.47;;;52.30;;
12665;SDS011;58531;59.050;17.416;2023-08-06T11:14:38;56.27;;;54.07;;
12665;SDS011;58531;59.050;17.416;2023-08-06T11:17:05;53.63;;;51.40;;
12665;SDS011;58531;59.050;17.416;2023-08-06T11:19:32;56.50;;;54.13;;
12665;SDS011;58531;59.050;17.416;2023-08-06T11:22:00;65.93;;;63.37;;
12665;SDS011;58531;59.050;17.416;2023-08-06T11:24:27;68.10;;;65.37;;
12665;SDS011;58531;59.050;17.416;2023-08-06T11:26:54;61.27;;;58.57;;
12665;SDS011;58531;59.050;17.416;2023-08-06T11:29:20;60.13;;;57.63;;
12665;SDS011;58531;59.050;17.416;2023-08-06T11:31:49;63.47;;;60.80;;
12665;SDS011;58531;59.050;17.416;2023-08-06T11:34:16;62.60;;;59.70;;
12665;SDS011;58531;59.050;17.416;2023-08-06T11:36:43;57.73;;;55.13;;
12665;SDS011;58531;59.050;17.416;2023-08-06T11:39:10;61.70;;;59.00;;
12665;SDS011;58531;59.050;17.416;2023-08-06T11:41:37;57.93;;;55.43;;
12665;SDS011;58531;59.050;17.416;2023-08-06T11:44:04;64.90;;;62.30;;
12665;SDS011;58531;59.050;17.416;2023-08-06T11:49:20;53.10;;;50.80;;
12665;SDS011;58531;59.050;17.416;2023-08-06T11:51:49;60.37;;;57.77;;
12665;SDS011;58531;59.050;17.416;2023-08-06T11:54:16;62.83;;;60.10;;
12665;SDS011;58531;59.050;17.416;2023-08-06T11:56:58;59.87;;;57.23;;
12665;SDS011;58531;59.050;17.416;2023-08-06T11:59:27;57.87;;;55.00;;
12665;SDS011;58531;59.050;17.416;2023-08-06T12:01:55;66.43;;;63.47;;
12665;SDS011;58531;59.050;17.416;2023-08-06T12:04:22;56.50;;;53.93;;
12665;SDS011;58531;59.050;17.416;2023-08-06T12:06:49;57.27;;;54.90;;
12665;SDS011;58531;59.050;17.416;2023-08-06T12:09:16;54.30;;;51.83;;
12665;SDS011;58531;59.050;17.416;2023-08-06T12:11:43;58.10;;;55.57;;
12665;SDS011;58531;59.050;17.416;2023-08-06T12:14:10;57.57;;;54.97;;
12665;SDS011;58531;59.050;17.416;2023-08-06T12:16:37;57.37;;;54.73;;
12665;SDS011;58531;59.050;17.416;2023-08-06T12:19:05;56.23;;;53.83;;
12665;SDS011;58531;59.050;17.416;2023-08-06T12:21:32;54.57;;;52.00;;
12665;SDS011;58531;59.050;17.416;2023-08-06T12:23:59;52.13;;;49.87;;
12665;SDS011;58531;59.050;17.416;2023-08-06T12:26:25;55.67;;;53.13;;
12665;SDS011;58531;59.050;17.416;2023-08-06T12:28:52;58.93;;;56.37;;
12665;SDS011;58531;59.050;17.416;2023-08-06T12:31:20;55.07;;;52.47;;
12665;SDS011;58531;59.050;17.416;2023-08-06T12:33:47;54.73;;;52.27;;
12665;SDS011;58531;59.050;17.416;2023-08-06T12:36:15;58.93;;;56.33;;
12665;SDS011;58531;59.050;17.416;2023-08-06T12:38:42;51.90;;;49.40;;
12665;SDS011;58531;59.050;17.416;2023-08-06T12:41:08;53.27;;;50.63;;
12665;SDS011;58531;59.050;17.416;2023-08-06T12:43:35;48.10;;;45.60;;
12665;SDS011;58531;59.050;17.416;2023-08-06T12:46:02;53.10;;;50.70;;
12665;SDS011;58531;59.050;17.416;2023-08-06T12:48:29;54.23;;;51.27;;
12665;SDS011;58531;59.050;17.416;2023-08-06T12:50:56;46.20;;;44.13;;
12665;SDS011;58531;59.050;17.416;2023-08-06T12:53:24;42.03;;;39.87;;
12665;SDS011;58531;59.050;17.416;2023-08-06T12:55:51;50.50;;;48.20;;
12665;SDS011;58531;59.050;17.416;2023-08-06T12:58:18;51.37;;;48.80;;
12665;SDS011;58531;59.050;17.416;2023-08-06T13:00:45;48.97;;;46.53;;
12665;SDS011;58531;59.050;17.416;2023-08-06T13:03:12;49.80;;;47.13;;
12665;SDS011;58531;59.050;17.416;2023-08-06T13:05:38;44.33;;;41.87;;
12665;SDS011;58531;59.050;17.416;2023-08-06T13:08:05;40.53;;;38.43;;
12665;SDS011;58531;59.050;17.416;2023-08-06T13:10:33;47.43;;;45.10;;
12665;SDS011;58531;59.050;17.416;2023-08-06T13:13:00;49.00;;;46.43;;
12665;SDS011;58531;59.050;17.416;2023-08-06T13:15:27;46.70;;;44.30;;
12665;SDS011;58531;59.050;17.416;2023-08-06T13:17:54;45.07;;;42.47;;
12665;SDS011;58531;59.050;17.416;2023-08-06T13:20:21;43.17;;;40.80;;
12665;SDS011;58531;59.050;17.416;2023-08-06T13:22:48;42.27;;;40.03;;
12665;SDS011;58531;59.050;17.416;2023-08-06T13:25:18;32.67;;;30.77;;
12665;SDS011;58531;59.050;17.416;2023-08-06T13:27:46;38.27;;;36.20;;
12665;SDS011;58531;59.050;17.416;2023-08-06T13:30:13;34.67;;;32.77;;
12665;SDS011;58531;59.050;17.416;2023-08-06T13:32:42;38.53;;;36.50;;
12665;SDS011;58531;59.050;17.416;2023-08-06T13:35:09;36.10;;;33.93;;
12665;SDS011;58531;59.050;17.416;2023-08-06T13:37:36;40.20;;;37.93;;
12665;SDS011;58531;59.050;17.416;2023-08-06T13:40:03;34.10;;;31.87;;
12665;SDS011;58531;59.050;17.416;2023-08-06T13:42:31;36.53;;;34.47;;
12665;SDS011;58531;59.050;17.416;2023-08-06T13:45:00;32.50;;;30.63;;
12665;SDS011;58531;59.050;17.416;2023-08-06T13:47:28;37.53;;;35.47;;
12665;SDS011;58531;59.050;17.416;2023-08-06T13:49:55;38.00;;;35.83;;
12665;SDS011;58531;59.050;17.416;2023-08-06T13:52:22;32.10;;;30.30;;
12665;SDS011;58531;59.050;17.416;2023-08-06T13:54:49;33.47;;;31.80;;
12665;SDS011;58531;59.050;17.416;2023-08-06T13:57:16;32.57;;;30.87;;
12665;SDS011;58531;59.050;17.416;2023-08-06T13:59:43;31.13;;;29.50;;
12665;SDS011;58531;59.050;17.416;2023-08-06T14:02:11;36.87;;;34.90;;
12665;SDS011;58531;59.050;17.416;2023-08-06T14:04:38;41.53;;;39.63;;
12665;SDS011;58531;59.050;17.416;2023-08-06T14:07:05;34.03;;;32.43;;
12665;SDS011;58531;59.050;17.416;2023-08-06T14:09:32;33.90;;;32.30;;
12665;SDS011;58531;59.050;17.416;2023-08-06T14:11:59;33.80;;;32.00;;
12665;SDS011;58531;59.050;17.416;2023-08-06T14:14:26;41.03;;;39.00;;
12665;SDS011;58531;59.050;17.416;2023-08-06T14:16:53;38.77;;;36.93;;
12665;SDS011;58531;59.050;17.416;2023-08-06T14:19:21;36.33;;;34.60;;
12665;SDS011;58531;59.050;17.416;2023-08-06T14:21:49;37.07;;;34.97;;